sensor_id;sensor_type;location;lat;lon;timestamp;temperature;humidity
12922;DHT22;6528;48.086;16.282;2022-11-14T00:01:11;21.50;80.30
12922;DHT22;6528;48.086;16.282;2022-11-14T00:03:38;21.50;80.40
12922;DHT22;6528;48.086;16.282;2022-11-14T00:06:06;21.50;80.50
12922;DHT22;6528;48.086;16.282;2022-11-14T00:08:33;21.50;80.60
12922;DHT22;6528;48.086;16.282;2022-11-14T00:11:00;21.50;81.00
12922;DHT22;6528;48.086;16.282;2022-11-14T00:13:27;21.50;81.20
12922;DHT22;6528;48.086;16.282;2022-11-14T00:15:54;21.50;81.50
12922;DHT22;6528;48.086;16.282;2022-11-14T00:18:21;21.50;81.40
12922;DHT22;6528;48.086;16.282;2022-11-14T00:20:49;21.50;81.30
12922;DHT22;6528;48.086;16.282;2022-11-14T00:23:16;21.50;81.40
12922;DHT22;6528;48.086;16.282;2022-11-14T00:25:43;21.50;81.50
12922;DHT22;6528;48.086;16.282;2022-11-14T00:28:10;21.50;81.40
12922;DHT22;6528;48.086;16.282;2022-11-14T00:30:37;21.50;81.30
12922;DHT22;6528;48.086;16.282;2022-11-14T00:33:03;21.50;81.20
12922;DHT22;6528;48.086;16.282;2022-11-14T00:35:30;21.50;81.60
12922;DHT22;6528;48.086;16.282;2022-11-14T00:37:57;21.50;81.20
12922;DHT22;6528;48.086;16.282;2022-11-14T00:40:23;21.50;81.20
12922;DHT22;6528;48.086;16.282;2022-11-14T00:42:50;21.50;82.00
12922;DHT22;6528;48.086;16.282;2022-11-14T00:45:17;21.50;81.20
12922;DHT22;6528;48.086;16.282;2022-11-14T00:47:44;21.50;81.20
12922;DHT22;6528;48.086;16.282;2022-11-14T00:50:10;21.40;81.10
12922;DHT22;6528;48.086;16.282;2022-11-14T00:52:37;21.50;81.20
12922;DHT22;6528;48.086;16.282;2022-11-14T00:55:04;21.50;81.30
12922;DHT22;6528;48.086;16.282;2022-11-14T00:57:31;21.50;81.30
12922;DHT22;6528;48.086;16.282;2022-11-14T00:59:58;21.50;81.40
12922;DHT22;6528;48.086;16.282;2022-11-14T01:02:24;21.40;81.40
12922;DHT22;6528;48.086;16.282;2022-11-14T01:04:51;21.40;81.60
12922;DHT22;6528;48.086;16.282;2022-11-14T01:07:18;21.50;81.70
12922;DHT22;6528;48.086;16.282;2022-11-14T01:09:45;21.40;81.70
12922;DHT22;6528;48.086;16.282;2022-11-14T01:12:12;21.50;81.90
12922;DHT22;6528;48.086;16.282;2022-11-14T01:14:39;21.50;82.00
12922;DHT22;6528;48.086;16.282;2022-11-14T01:17:06;21.50;82.10
12922;DHT22;6528;48.086;16.282;2022-11-14T01:19:33;21.40;82.10
12922;DHT22;6528;48.086;16.282;2022-11-14T01:22:00;21.40;82.20
12922;DHT22;6528;48.086;16.282;2022-11-14T01:24:32;21.40;82.30
12922;DHT22;6528;48.086;16.282;2022-11-14T01:27:00;21.40;82.50
12922;DHT22;6528;48.086;16.282;2022-11-14T01:29:27;21.40;82.50
12922;DHT22;6528;48.086;16.282;2022-11-14T01:31:54;21.40;82.50
12922;DHT22;6528;48.086;16.282;2022-11-14T01:34:22;21.40;82.70
12922;DHT22;6528;48.086;16.282;2022-11-14T01:36:49;21.40;82.80
12922;DHT22;6528;48.086;16.282;2022-11-14T01:39:16;21.40;83.00
12922;DHT22;6528;48.086;16.282;2022-11-14T01:41:42;21.40;83.20
12922;DHT22;6528;48.086;16.282;2022-11-14T01:44:15;21.40;83.30
12922;DHT22;6528;48.086;16.282;2022-11-14T01:46:46;21.50;83.50
12922;DHT22;6528;48.086;16.282;2022-11-14T01:49:19;21.40;83.50
12922;DHT22;6528;48.086;16.282;2022-11-14T01:51:51;21.40;83.60
12922;DHT22;6528;48.086;16.282;2022-11-14T01:54:26;21.40;83.80
12922;DHT22;6528;48.086;16.282;2022-11-14T01:56:57;21.50;84.10
12922;DHT22;6528;48.086;16.282;2022-11-14T01:59:28;21.50;84.00
12922;DHT22;6528;48.086;16.282;2022-11-14T02:02:00;21.50;83.90
12922;DHT22;6528;48.086;16.282;2022-11-14T02:04:36;21.50;83.90
12922;DHT22;6528;48.086;16.282;2022-11-14T02:07:04;21.50;83.90
12922;DHT22;6528;48.086;16.282;2022-11-14T02:09:35;21.50;83.90
12922;DHT22;6528;48.086;16.282;2022-11-14T02:12:06;21.40;83.80
12922;DHT22;6528;48.086;16.282;2022-11-14T02:14:35;21.40;83.90
12922;DHT22;6528;48.086;16.282;2022-11-14T02:17:03;21.40;83.90
12922;DHT22;6528;48.086;16.282;2022-11-14T02:19:53;21.40;83.90
12922;DHT22;6528;48.086;16.282;2022-11-14T02:22:20;21.40;84.00
12922;DHT22;6528;48.086;16.282;2022-11-14T02:24:47;21.40;84.30
12922;DHT22;6528;48.086;16.282;2022-11-14T02:27:14;21.40;84.30
12922;DHT22;6528;48.086;16.282;2022-11-14T02:29:42;21.40;84.30
12922;DHT22;6528;48.086;16.282;2022-11-14T02:32:08;21.40;84.10
12922;DHT22;6528;48.086;16.282;2022-11-14T02:34:37;21.40;84.30
12922;DHT22;6528;48.086;16.282;2022-11-14T02:37:04;21.40;84.30
12922;DHT22;6528;48.086;16.282;2022-11-14T02:39:31;21.40;84.30
12922;DHT22;6528;48.086;16.282;2022-11-14T02:41:58;21.40;84.30
12922;DHT22;6528;48.086;16.282;2022-11-14T02:44:25;21.40;84.30
12922;DHT22;6528;48.086;16.282;2022-11-14T02:46:51;21.40;84.20
12922;DHT22;6528;48.086;16.282;2022-11-14T02:49:18;21.30;84.00
12922;DHT22;6528;48.086;16.282;2022-11-14T02:51:45;21.40;84.10
12922;DHT22;6528;48.086;16.282;2022-11-14T02:54:12;21.30;83.90
12922;DHT22;6528;48.086;16.282;2022-11-14T02:56:39;21.40;83.90
12922;DHT22;6528;48.086;16.282;2022-11-14T02:59:05;21.40;83.90
12922;DHT22;6528;48.086;16.282;2022-11-14T03:01:32;21.40;83.80
12922;DHT22;6528;48.086;16.282;2022-11-14T03:03:59;21.30;83.80
12922;DHT22;6528;48.086;16.282;2022-11-14T03:06:26;21.30;83.70
12922;DHT22;6528;48.086;16.282;2022-11-14T03:08:52;21.30;83.80
12922;DHT22;6528;48.086;16.282;2022-11-14T03:11:19;21.30;83.80
12922;DHT22;6528;48.086;16.282;2022-11-14T03:13:46;21.30;83.80
12922;DHT22;6528;48.086;16.282;2022-11-14T03:16:13;21.30;83.80
12922;DHT22;6528;48.086;16.282;2022-11-14T03:18:40;21.30;83.90
12922;DHT22;6528;48.086;16.282;2022-11-14T03:21:12;21.30;83.90
12922;DHT22;6528;48.086;16.282;2022-11-14T03:23:39;21.30;84.00
12922;DHT22;6528;48.086;16.282;2022-11-14T03:26:08;21.30;84.10
12922;DHT22;6528;48.086;16.282;2022-11-14T03:28:36;21.30;84.10
12922;DHT22;6528;48.086;16.282;2022-11-14T03:31:05;21.30;84.10
12922;DHT22;6528;48.086;16.282;2022-11-14T03:33:32;21.30;84.10
12922;DHT22;6528;48.086;16.282;2022-11-14T03:35:59;21.30;84.10
12922;DHT22;6528;48.086;16.282;2022-11-14T03:38:26;21.30;84.20
12922;DHT22;6528;48.086;16.282;2022-11-14T03:40:52;21.30;84.30
12922;DHT22;6528;48.086;16.282;2022-11-14T03:43:20;21.30;84.30
12922;DHT22;6528;48.086;16.282;2022-11-14T03:45:47;21.30;84.30
12922;DHT22;6528;48.086;16.282;2022-11-14T03:48:14;21.30;84.40
12922;DHT22;6528;48.086;16.282;2022-11-14T03:50:42;21.30;84.40
12922;DHT22;6528;48.086;16.282;2022-11-14T03:53:09;21.30;84.50
12922;DHT22;6528;48.086;16.282;2022-11-14T03:55:36;21.30;84.50
12922;DHT22;6528;48.086;16.282;2022-11-14T03:58:04;21.30;84.60
12922;DHT22;6528;48.086;16.282;2022-11-14T04:00:31;21.30;84.90
12922;DHT22;6528;48.086;16.282;2022-11-14T04:02:58;21.30;84.90
12922;DHT22;6528;48.086;16.282;2022-11-14T04:05:24;21.30;84.90
12922;DHT22;6528;48.086;16.282;2022-11-14T04:07:51;21.30;85.70
12922;DHT22;6528;48.086;16.282;2022-11-14T04:10:18;21.30;84.90
12922;DHT22;6528;48.086;16.282;2022-11-14T04:12:52;21.30;84.80
12922;DHT22;6528;48.086;16.282;2022-11-14T04:15:19;21.30;84.70
12922;DHT22;6528;48.086;16.282;2022-11-14T04:17:46;21.30;84.70
12922;DHT22;6528;48.086;16.282;2022-11-14T04:20:13;21.30;84.60
12922;DHT22;6528;48.086;16.282;2022-11-14T04:22:40;21.30;84.50
12922;DHT22;6528;48.086;16.282;2022-11-14T04:25:08;21.30;84.50
12922;DHT22;6528;48.086;16.282;2022-11-14T04:27:35;21.30;84.40
12922;DHT22;6528;48.086;16.282;2022-11-14T04:30:04;21.20;84.30
12922;DHT22;6528;48.086;16.282;2022-11-14T04:32:31;21.30;84.40
12922;DHT22;6528;48.086;16.282;2022-11-14T04:34:58;21.30;84.40
12922;DHT22;6528;48.086;16.282;2022-11-14T04:37:26;21.30;84.30
12922;DHT22;6528;48.086;16.282;2022-11-14T04:39:52;21.20;84.10
12922;DHT22;6528;48.086;16.282;2022-11-14T04:42:24;21.30;84.20
12922;DHT22;6528;48.086;16.282;2022-11-14T04:44:51;21.30;84.30
12922;DHT22;6528;48.086;16.282;2022-11-14T04:47:18;21.20;84.10
12922;DHT22;6528;48.086;16.282;2022-11-14T04:49:45;21.30;84.30
12922;DHT22;6528;48.086;16.282;2022-11-14T04:52:11;21.30;84.40
12922;DHT22;6528;48.086;16.282;2022-11-14T04:54:38;21.30;84.50
12922;DHT22;6528;48.086;16.282;2022-11-14T04:57:05;21.30;84.50
12922;DHT22;6528;48.086;16.282;2022-11-14T04:59:31;21.20;84.40
12922;DHT22;6528;48.086;16.282;2022-11-14T05:01:58;21.20;84.40
12922;DHT22;6528;48.086;16.282;2022-11-14T05:04:25;21.30;84.50
12922;DHT22;6528;48.086;16.282;2022-11-14T05:06:52;21.30;84.60
12922;DHT22;6528;48.086;16.282;2022-11-14T05:09:18;21.30;84.60
12922;DHT22;6528;48.086;16.282;2022-11-14T05:11:45;21.30;84.50
12922;DHT22;6528;48.086;16.282;2022-11-14T05:14:12;21.30;84.70
12922;DHT22;6528;48.086;16.282;2022-11-14T05:16:39;21.30;84.70
12922;DHT22;6528;48.086;16.282;2022-11-14T05:19:05;21.30;84.70
12922;DHT22;6528;48.086;16.282;2022-11-14T05:21:32;21.30;84.70
12922;DHT22;6528;48.086;16.282;2022-11-14T05:23:59;21.30;84.70
12922;DHT22;6528;48.086;16.282;2022-11-14T05:26:26;21.30;84.70
12922;DHT22;6528;48.086;16.282;2022-11-14T05:28:53;21.30;84.70
12922;DHT22;6528;48.086;16.282;2022-11-14T05:31:20;21.30;84.70
12922;DHT22;6528;48.086;16.282;2022-11-14T05:33:46;21.30;84.70
12922;DHT22;6528;48.086;16.282;2022-11-14T05:36:15;21.30;84.70
12922;DHT22;6528;48.086;16.282;2022-11-14T05:38:42;21.30;84.60
12922;DHT22;6528;48.086;16.282;2022-11-14T05:41:14;21.30;84.60
12922;DHT22;6528;48.086;16.282;2022-11-14T05:43:41;21.30;84.60
12922;DHT22;6528;48.086;16.282;2022-11-14T05:46:13;21.30;84.50
12922;DHT22;6528;48.086;16.282;2022-11-14T05:48:40;21.30;84.50
12922;DHT22;6528;48.086;16.282;2022-11-14T05:51:10;21.30;84.40
12922;DHT22;6528;48.086;16.282;2022-11-14T05:53:37;21.30;84.40
12922;DHT22;6528;48.086;16.282;2022-11-14T05:56:08;21.40;84.50
12922;DHT22;6528;48.086;16.282;2022-11-14T05:58:36;21.40;84.40
12922;DHT22;6528;48.086;16.282;2022-11-14T06:01:11;21.40;84.40
12922;DHT22;6528;48.086;16.282;2022-11-14T06:03:43;21.40;84.30
12922;DHT22;6528;48.086;16.282;2022-11-14T06:06:13;21.40;84.30
12922;DHT22;6528;48.086;16.282;2022-11-14T06:08:40;21.40;84.30
12922;DHT22;6528;48.086;16.282;2022-11-14T06:11:16;21.40;84.20
12922;DHT22;6528;48.086;16.282;2022-11-14T06:13:44;21.40;84.20
12922;DHT22;6528;48.086;16.282;2022-11-14T06:16:13;21.30;84.10
12922;DHT22;6528;48.086;16.282;2022-11-14T06:18:40;21.40;84.30
12922;DHT22;6528;48.086;16.282;2022-11-14T06:21:10;21.40;84.30
12922;DHT22;6528;48.086;16.282;2022-11-14T06:23:37;21.40;84.30
12922;DHT22;6528;48.086;16.282;2022-11-14T06:26:07;21.40;85.00
12922;DHT22;6528;48.086;16.282;2022-11-14T06:28:36;21.40;84.30
12922;DHT22;6528;48.086;16.282;2022-11-14T06:31:04;21.40;84.20
12922;DHT22;6528;48.086;16.282;2022-11-14T06:33:35;21.40;84.00
12922;DHT22;6528;48.086;16.282;2022-11-14T06:36:04;21.40;83.90
12922;DHT22;6528;48.086;16.282;2022-11-14T06:38:33;21.40;83.80
12922;DHT22;6528;48.086;16.282;2022-11-14T06:41:10;21.40;84.30
12922;DHT22;6528;48.086;16.282;2022-11-14T06:43:40;21.50;89.20
12922;DHT22;6528;48.086;16.282;2022-11-14T06:46:08;21.50;90.30
12922;DHT22;6528;48.086;16.282;2022-11-14T06:48:36;21.50;90.50
12922;DHT22;6528;48.086;16.282;2022-11-14T06:51:03;21.50;90.50
12922;DHT22;6528;48.086;16.282;2022-11-14T06:53:32;21.60;90.50
12922;DHT22;6528;48.086;16.282;2022-11-14T06:56:04;21.60;90.40
12922;DHT22;6528;48.086;16.282;2022-11-14T06:58:34;21.60;90.30
12922;DHT22;6528;48.086;16.282;2022-11-14T07:01:08;21.70;90.20
12922;DHT22;6528;48.086;16.282;2022-11-14T07:03:36;21.70;90.00
12922;DHT22;6528;48.086;16.282;2022-11-14T07:06:03;21.70;89.70
12922;DHT22;6528;48.086;16.282;2022-11-14T07:08:31;21.70;89.30
12922;DHT22;6528;48.086;16.282;2022-11-14T07:11:06;21.70;89.00
12922;DHT22;6528;48.086;16.282;2022-11-14T07:13:35;21.80;88.80
12922;DHT22;6528;48.086;16.282;2022-11-14T07:16:02;21.80;88.50
12922;DHT22;6528;48.086;16.282;2022-11-14T07:18:30;21.80;88.20
12922;DHT22;6528;48.086;16.282;2022-11-14T07:21:03;21.80;87.90
12922;DHT22;6528;48.086;16.282;2022-11-14T07:23:32;21.80;87.60
12922;DHT22;6528;48.086;16.282;2022-11-14T07:26:03;21.80;87.30
12922;DHT22;6528;48.086;16.282;2022-11-14T07:28:38;21.90;87.20
12922;DHT22;6528;48.086;16.282;2022-11-14T07:31:06;21.90;86.90
12922;DHT22;6528;48.086;16.282;2022-11-14T07:33:34;21.90;86.80
12922;DHT22;6528;48.086;16.282;2022-11-14T07:36:01;21.90;86.50
12922;DHT22;6528;48.086;16.282;2022-11-14T07:38:29;21.90;86.30
12922;DHT22;6528;48.086;16.282;2022-11-14T07:40:59;21.90;86.10
12922;DHT22;6528;48.086;16.282;2022-11-14T07:43:26;21.90;85.80
12922;DHT22;6528;48.086;16.282;2022-11-14T07:45:57;21.90;86.40
12922;DHT22;6528;48.086;16.282;2022-11-14T07:48:24;22.00;85.60
12922;DHT22;6528;48.086;16.282;2022-11-14T07:50:51;22.00;85.50
12922;DHT22;6528;48.086;16.282;2022-11-14T07:53:18;21.90;85.10
12922;DHT22;6528;48.086;16.282;2022-11-14T07:55:45;22.00;85.20
12922;DHT22;6528;48.086;16.282;2022-11-14T07:58:11;21.90;84.90
12922;DHT22;6528;48.086;16.282;2022-11-14T08:00:39;22.00;84.90
12922;DHT22;6528;48.086;16.282;2022-11-14T08:03:06;22.00;84.90
12922;DHT22;6528;48.086;16.282;2022-11-14T08:05:34;22.00;84.70
12922;DHT22;6528;48.086;16.282;2022-11-14T08:08:01;22.00;84.60
12922;DHT22;6528;48.086;16.282;2022-11-14T08:10:27;22.00;84.50
12922;DHT22;6528;48.086;16.282;2022-11-14T08:13:01;22.00;84.30
12922;DHT22;6528;48.086;16.282;2022-11-14T08:15:48;22.00;84.30
12922;DHT22;6528;48.086;16.282;2022-11-14T08:18:15;22.00;84.10
12922;DHT22;6528;48.086;16.282;2022-11-14T08:20:42;22.00;84.00
12922;DHT22;6528;48.086;16.282;2022-11-14T08:23:10;22.00;83.80
12922;DHT22;6528;48.086;16.282;2022-11-14T08:25:37;22.10;83.90
12922;DHT22;6528;48.086;16.282;2022-11-14T08:28:04;22.00;83.70
12922;DHT22;6528;48.086;16.282;2022-11-14T08:30:31;22.00;84.40
12922;DHT22;6528;48.086;16.282;2022-11-14T08:33:01;22.10;83.60
12922;DHT22;6528;48.086;16.282;2022-11-14T08:35:28;22.10;83.60
12922;DHT22;6528;48.086;16.282;2022-11-14T08:37:55;22.10;83.60
12922;DHT22;6528;48.086;16.282;2022-11-14T08:40:22;22.10;83.40
12922;DHT22;6528;48.086;16.282;2022-11-14T08:42:49;22.10;83.40
12922;DHT22;6528;48.086;16.282;2022-11-14T08:45:16;22.10;83.30
12922;DHT22;6528;48.086;16.282;2022-11-14T08:47:50;22.10;83.30
12922;DHT22;6528;48.086;16.282;2022-11-14T08:50:18;22.10;83.30
12922;DHT22;6528;48.086;16.282;2022-11-14T08:52:50;22.10;83.20
12922;DHT22;6528;48.086;16.282;2022-11-14T08:55:19;22.20;83.10
12922;DHT22;6528;48.086;16.282;2022-11-14T08:57:46;22.10;83.00
12922;DHT22;6528;48.086;16.282;2022-11-14T09:00:16;22.20;83.00
12922;DHT22;6528;48.086;16.282;2022-11-14T09:02:43;22.20;82.80
12922;DHT22;6528;48.086;16.282;2022-11-14T09:05:10;22.20;82.70
12922;DHT22;6528;48.086;16.282;2022-11-14T09:07:37;22.20;82.70
12922;DHT22;6528;48.086;16.282;2022-11-14T09:10:04;22.20;82.60
12922;DHT22;6528;48.086;16.282;2022-11-14T09:12:31;22.30;82.60
12922;DHT22;6528;48.086;16.282;2022-11-14T09:14:58;22.30;82.50
12922;DHT22;6528;48.086;16.282;2022-11-14T09:17:25;22.30;82.30
12922;DHT22;6528;48.086;16.282;2022-11-14T09:19:52;22.30;82.10
12922;DHT22;6528;48.086;16.282;2022-11-14T09:22:19;22.40;82.10
12922;DHT22;6528;48.086;16.282;2022-11-14T09:24:46;22.40;82.00
12922;DHT22;6528;48.086;16.282;2022-11-14T09:27:13;22.40;81.90
12922;DHT22;6528;48.086;16.282;2022-11-14T09:29:40;22.40;81.80
12922;DHT22;6528;48.086;16.282;2022-11-14T09:32:06;22.40;81.70
12922;DHT22;6528;48.086;16.282;2022-11-14T09:34:33;22.40;81.50
12922;DHT22;6528;48.086;16.282;2022-11-14T09:37:00;22.40;81.50
12922;DHT22;6528;48.086;16.282;2022-11-14T09:39:27;22.50;81.60
12922;DHT22;6528;48.086;16.282;2022-11-14T09:45:13;22.50;81.50
12922;DHT22;6528;48.086;16.282;2022-11-14T09:47:44;22.50;81.90
12922;DHT22;6528;48.086;16.282;2022-11-14T09:50:33;22.40;81.70
12922;DHT22;6528;48.086;16.282;2022-11-14T09:53:08;22.50;81.40
12922;DHT22;6528;48.086;16.282;2022-11-14T09:55:36;22.40;80.80
12922;DHT22;6528;48.086;16.282;2022-11-14T09:58:04;22.40;80.80
12922;DHT22;6528;48.086;16.282;2022-11-14T10:00:50;22.50;80.80
12922;DHT22;6528;48.086;16.282;2022-11-14T10:06:34;22.40;80.50
12922;DHT22;6528;48.086;16.282;2022-11-14T10:09:29;22.40;80.20
12922;DHT22;6528;48.086;16.282;2022-11-14T10:14:59;22.40;80.10
12922;DHT22;6528;48.086;16.282;2022-11-14T10:26:27;22.40;79.70
12922;DHT22;6528;48.086;16.282;2022-11-14T10:37:17;22.40;79.70
12922;DHT22;6528;48.086;16.282;2022-11-14T10:39:53;22.40;79.50
12922;DHT22;6528;48.086;16.282;2022-11-14T10:42:30;22.40;79.50
12922;DHT22;6528;48.086;16.282;2022-11-14T10:45:34;22.40;79.70
12922;DHT22;6528;48.086;16.282;2022-11-14T10:48:15;22.40;79.60
12922;DHT22;6528;48.086;16.282;2022-11-14T10:50:50;22.40;79.60
12922;DHT22;6528;48.086;16.282;2022-11-14T10:53:26;22.40;79.60
12922;DHT22;6528;48.086;16.282;2022-11-14T10:55:55;22.40;79.60
12922;DHT22;6528;48.086;16.282;2022-11-14T10:58:31;22.40;79.60
12922;DHT22;6528;48.086;16.282;2022-11-14T11:04:32;22.40;79.40
12922;DHT22;6528;48.086;16.282;2022-11-14T11:09:34;22.40;79.50
12922;DHT22;6528;48.086;16.282;2022-11-14T11:12:37;22.40;79.60
12922;DHT22;6528;48.086;16.282;2022-11-14T11:15:13;22.50;79.80
12922;DHT22;6528;48.086;16.282;2022-11-14T11:20:37;22.40;79.20
12922;DHT22;6528;48.086;16.282;2022-11-14T11:25:33;22.40;79.20
12922;DHT22;6528;48.086;16.282;2022-11-14T11:28:15;22.40;79.30
12922;DHT22;6528;48.086;16.282;2022-11-14T11:30:59;22.40;79.30
12922;DHT22;6528;48.086;16.282;2022-11-14T11:33:29;22.40;79.40
12922;DHT22;6528;48.086;16.282;2022-11-14T11:36:00;22.40;79.20
12922;DHT22;6528;48.086;16.282;2022-11-14T11:38:29;22.40;79.20
12922;DHT22;6528;48.086;16.282;2022-11-14T11:41:32;22.40;79.30
12922;DHT22;6528;48.086;16.282;2022-11-14T11:44:21;22.40;79.30
12922;DHT22;6528;48.086;16.282;2022-11-14T11:46:55;22.40;79.30
12922;DHT22;6528;48.086;16.282;2022-11-14T11:52:03;22.40;79.30
12922;DHT22;6528;48.086;16.282;2022-11-14T11:54:41;22.40;79.40
12922;DHT22;6528;48.086;16.282;2022-11-14T11:57:15;22.40;79.30
12922;DHT22;6528;48.086;16.282;2022-11-14T11:59:51;22.40;79.20
12922;DHT22;6528;48.086;16.282;2022-11-14T12:02:25;22.40;79.20
12922;DHT22;6528;48.086;16.282;2022-11-14T12:04:55;22.40;79.00
12922;DHT22;6528;48.086;16.282;2022-11-14T12:07:40;22.40;79.00
12922;DHT22;6528;48.086;16.282;2022-11-14T12:10:33;22.40;79.00
12922;DHT22;6528;48.086;16.282;2022-11-14T12:21:09;22.40;78.90
12922;DHT22;6528;48.086;16.282;2022-11-14T12:25:00;22.40;79.50
12922;DHT22;6528;48.086;16.282;2022-11-14T12:32:30;22.40;79.40
12922;DHT22;6528;48.086;16.282;2022-11-14T12:34:58;22.40;79.00
12922;DHT22;6528;48.086;16.282;2022-11-14T12:37:34;22.30;78.60
12922;DHT22;6528;48.086;16.282;2022-11-14T12:40:05;22.40;78.60
12922;DHT22;6528;48.086;16.282;2022-11-14T12:42:33;22.40;78.50
12922;DHT22;6528;48.086;16.282;2022-11-14T12:45:00;22.40;79.30
12922;DHT22;6528;48.086;16.282;2022-11-14T12:47:27;22.40;79.30
12922;DHT22;6528;48.086;16.282;2022-11-14T13:00:27;22.40;78.40
12922;DHT22;6528;48.086;16.282;2022-11-14T13:03:14;22.50;78.50
12922;DHT22;6528;48.086;16.282;2022-11-14T13:11:44;22.50;78.50
12922;DHT22;6528;48.086;16.282;2022-11-14T13:14:30;22.50;78.50
12922;DHT22;6528;48.086;16.282;2022-11-14T13:17:31;22.50;78.40
12922;DHT22;6528;48.086;16.282;2022-11-14T13:33:44;22.50;78.60
12922;DHT22;6528;48.086;16.282;2022-11-14T13:36:43;22.50;78.60
12922;DHT22;6528;48.086;16.282;2022-11-14T13:42:53;22.50;78.60
12922;DHT22;6528;48.086;16.282;2022-11-14T13:51:16;22.50;78.70
12922;DHT22;6528;48.086;16.282;2022-11-14T13:54:14;22.50;78.70
12922;DHT22;6528;48.086;16.282;2022-11-14T14:00:10;22.50;78.60
12922;DHT22;6528;48.086;16.282;2022-11-14T14:03:02;22.50;78.60
12922;DHT22;6528;48.086;16.282;2022-11-14T14:16:31;22.50;78.70
12922;DHT22;6528;48.086;16.282;2022-11-14T14:22:07;22.50;78.70
12922;DHT22;6528;48.086;16.282;2022-11-14T14:24:52;22.50;78.80
12922;DHT22;6528;48.086;16.282;2022-11-14T14:30:37;22.50;78.90
12922;DHT22;6528;48.086;16.282;2022-11-14T14:35:35;22.50;78.80
12922;DHT22;6528;48.086;16.282;2022-11-14T14:38:11;22.50;78.80
12922;DHT22;6528;48.086;16.282;2022-11-14T14:40:40;22.50;78.90
12922;DHT22;6528;48.086;16.282;2022-11-14T14:43:22;22.50;78.80
12922;DHT22;6528;48.086;16.282;2022-11-14T14:45:51;22.50;78.90
12922;DHT22;6528;48.086;16.282;2022-11-14T14:48:24;22.50;78.90
12922;DHT22;6528;48.086;16.282;2022-11-14T14:50:58;22.50;78.90
12922;DHT22;6528;48.086;16.282;2022-11-14T14:53:33;22.50;78.90
12922;DHT22;6528;48.086;16.282;2022-11-14T14:56:06;22.50;78.90
12922;DHT22;6528;48.086;16.282;2022-11-14T14:58:42;22.50;78.90
12922;DHT22;6528;48.086;16.282;2022-11-14T15:01:14;22.50;78.90
12922;DHT22;6528;48.086;16.282;2022-11-14T15:03:45;22.50;78.90
12922;DHT22;6528;48.086;16.282;2022-11-14T15:06:33;22.50;78.90
12922;DHT22;6528;48.086;16.282;2022-11-14T15:09:12;22.50;78.90
12922;DHT22;6528;48.086;16.282;2022-11-14T15:11:42;22.50;78.90
12922;DHT22;6528;48.086;16.282;2022-11-14T15:14:15;22.50;78.90
12922;DHT22;6528;48.086;16.282;2022-11-14T15:16:44;22.50;78.90
12922;DHT22;6528;48.086;16.282;2022-11-14T15:19:14;22.50;79.00
12922;DHT22;6528;48.086;16.282;2022-11-14T15:21:42;22.50;79.00
12922;DHT22;6528;48.086;16.282;2022-11-14T15:24:15;22.50;78.90
12922;DHT22;6528;48.086;16.282;2022-11-14T15:26:47;22.50;78.90
12922;DHT22;6528;48.086;16.282;2022-11-14T15:29:19;22.50;79.70
12922;DHT22;6528;48.086;16.282;2022-11-14T15:31:55;22.50;78.90
12922;DHT22;6528;48.086;16.282;2022-11-14T15:34:34;22.50;79.00
12922;DHT22;6528;48.086;16.282;2022-11-14T15:37:19;22.50;79.00
12922;DHT22;6528;48.086;16.282;2022-11-14T15:39:46;22.50;79.00
12922;DHT22;6528;48.086;16.282;2022-11-14T15:42:35;22.50;79.70
12922;DHT22;6528;48.086;16.282;2022-11-14T15:45:37;22.50;79.00
12922;DHT22;6528;48.086;16.282;2022-11-14T15:48:17;22.50;79.00
12922;DHT22;6528;48.086;16.282;2022-11-14T15:50:49;22.50;79.00
12922;DHT22;6528;48.086;16.282;2022-11-14T15:53:23;22.50;79.00
12922;DHT22;6528;48.086;16.282;2022-11-14T15:55:51;22.50;79.00
12922;DHT22;6528;48.086;16.282;2022-11-14T15:58:18;22.50;79.00
12922;DHT22;6528;48.086;16.282;2022-11-14T16:00:55;22.50;79.00
12922;DHT22;6528;48.086;16.282;2022-11-14T16:03:23;22.40;78.90
12922;DHT22;6528;48.086;16.282;2022-11-14T16:05:50;22.40;78.90
12922;DHT22;6528;48.086;16.282;2022-11-14T16:08:16;22.50;79.00
12922;DHT22;6528;48.086;16.282;2022-11-14T16:10:43;22.50;79.00
12922;DHT22;6528;48.086;16.282;2022-11-14T16:13:10;22.50;79.00
12922;DHT22;6528;48.086;16.282;2022-11-14T16:15:37;22.50;79.00
12922;DHT22;6528;48.086;16.282;2022-11-14T16:18:05;22.50;79.00
12922;DHT22;6528;48.086;16.282;2022-11-14T16:20:31;22.40;78.90
12922;DHT22;6528;48.086;16.282;2022-11-14T16:23:03;22.50;79.00
12922;DHT22;6528;48.086;16.282;2022-11-14T16:25:31;22.50;79.00
12922;DHT22;6528;48.086;16.282;2022-11-14T16:27:57;22.40;78.90
12922;DHT22;6528;48.086;16.282;2022-11-14T16:30:26;22.50;79.10
12922;DHT22;6528;48.086;16.282;2022-11-14T16:32:53;22.40;79.00
12922;DHT22;6528;48.086;16.282;2022-11-14T16:35:22;22.50;79.10
12922;DHT22;6528;48.086;16.282;2022-11-14T16:37:49;22.50;79.00
12922;DHT22;6528;48.086;16.282;2022-11-14T16:40:22;22.50;79.00
12922;DHT22;6528;48.086;16.282;2022-11-14T16:42:53;22.50;79.00
12922;DHT22;6528;48.086;16.282;2022-11-14T16:45:21;22.40;78.90
12922;DHT22;6528;48.086;16.282;2022-11-14T16:47:48;22.50;79.00
12922;DHT22;6528;48.086;16.282;2022-11-14T16:50:16;22.50;79.00
12922;DHT22;6528;48.086;16.282;2022-11-14T16:52:43;22.50;79.00
12922;DHT22;6528;48.086;16.282;2022-11-14T16:55:10;22.50;79.00
12922;DHT22;6528;48.086;16.282;2022-11-14T16:57:37;22.40;78.90
12922;DHT22;6528;48.086;16.282;2022-11-14T17:00:07;22.50;79.00
12922;DHT22;6528;48.086;16.282;2022-11-14T17:02:34;22.40;78.90
12922;DHT22;6528;48.086;16.282;2022-11-14T17:05:01;22.50;79.00
12922;DHT22;6528;48.086;16.282;2022-11-14T17:07:27;22.40;78.90
12922;DHT22;6528;48.086;16.282;2022-11-14T17:09:58;22.40;78.90
12922;DHT22;6528;48.086;16.282;2022-11-14T17:12:26;22.40;79.00
12922;DHT22;6528;48.086;16.282;2022-11-14T17:14:53;22.50;79.00
12922;DHT22;6528;48.086;16.282;2022-11-14T17:17:20;22.50;79.00
12922;DHT22;6528;48.086;16.282;2022-11-14T17:19:47;22.50;79.00
12922;DHT22;6528;48.086;16.282;2022-11-14T17:22:15;22.50;79.00
12922;DHT22;6528;48.086;16.282;2022-11-14T17:24:42;22.40;78.90
12922;DHT22;6528;48.086;16.282;2022-11-14T17:27:09;22.50;79.00
12922;DHT22;6528;48.086;16.282;2022-11-14T17:29:38;22.40;78.90
12922;DHT22;6528;48.086;16.282;2022-11-14T17:32:05;22.50;79.00
12922;DHT22;6528;48.086;16.282;2022-11-14T17:34:32;22.40;78.90
12922;DHT22;6528;48.086;16.282;2022-11-14T17:36:59;22.40;78.90
12922;DHT22;6528;48.086;16.282;2022-11-14T17:39:25;22.40;78.90
12922;DHT22;6528;48.086;16.282;2022-11-14T17:41:52;22.40;78.90
12922;DHT22;6528;48.086;16.282;2022-11-14T17:44:19;22.40;79.00
12922;DHT22;6528;48.086;16.282;2022-11-14T17:46:46;22.40;78.90